createdAt,value
2018-10-21T00:00:02.870Z,9.61
2018-10-21T00:00:06.976Z,9.6
2018-10-21T00:00:11.070Z,9.61
2018-10-21T00:00:15.067Z,9.6
2018-10-21T00:00:19.264Z,9.6
2018-10-21T00:00:23.468Z,9.61
2018-10-21T00:00:27.563Z,9.6
2018-10-21T00:00:31.763Z,9.6
2018-10-21T00:00:35.855Z,9.6
2018-10-21T00:00:40.165Z,9.59
2018-10-21T00:00:44.376Z,9.59
2018-10-21T00:00:48.482Z,9.58
2018-10-21T00:00:52.581Z,9.59
2018-10-21T00:00:56.888Z,9.58
2018-10-21T00:01:01.096Z,9.58
2018-10-21T00:01:05.191Z,9.58
2018-10-21T00:01:09.180Z,9.57
2018-10-21T00:01:13.275Z,9.57
2018-10-21T00:01:17.478Z,9.57
2018-10-21T00:01:21.697Z,9.57
2018-10-21T00:01:26.007Z,9.56
2018-10-21T00:01:30.310Z,9.56
2018-10-21T00:01:34.412Z,9.54
2018-10-21T00:01:38.616Z,9.56
2018-10-21T00:01:42.392Z,9.55
2018-10-21T00:01:46.595Z,9.55
2018-10-21T00:01:50.798Z,9.54
2018-10-21T00:01:55.106Z,9.55
2018-10-21T00:01:59.410Z,9.54
2018-10-21T00:02:03.395Z,9.53
2018-10-21T00:02:07.408Z,9.54
2018-10-21T00:02:11.948Z,9.53
2018-10-21T00:02:16.208Z,9.53
2018-10-21T00:02:21.074Z,9.53
2018-10-21T00:02:26.444Z,9.53
2018-10-21T00:02:31.664Z,9.52
2018-10-21T00:02:35.768Z,9.52
2018-10-21T00:02:39.975Z,9.51
2018-10-21T00:02:44.078Z,9.51
2018-10-21T00:02:48.177Z,9.51
2018-10-21T00:02:52.482Z,9.51
2018-10-21T00:02:57.042Z,9.51
2018-10-21T00:03:01.635Z,9.5
2018-10-21T00:03:06.014Z,9.5
2018-10-21T00:03:10.597Z,9.49
2018-10-21T00:03:14.761Z,9.49
2018-10-21T00:03:19.338Z,9.5
2018-10-21T00:03:23.324Z,9.49
2018-10-21T00:03:27.420Z,9.48
2018-10-21T00:03:31.518Z,9.49
2018-10-21T00:03:35.619Z,9.48
2018-10-21T00:03:39.931Z,9.48
2018-10-21T00:03:44.030Z,9.48
2018-10-21T00:03:48.356Z,9.48
2018-10-21T00:03:52.565Z,9.48
2018-10-21T00:03:56.661Z,9.47
2018-10-21T00:04:00.540Z,9.46
2018-10-21T00:04:04.539Z,9.47
2018-10-21T00:04:08.532Z,9.47
2018-10-21T00:04:12.649Z,9.47
2018-10-21T00:04:16.742Z,9.47
2018-10-21T00:04:21.043Z,9.46
2018-10-21T00:04:25.363Z,9.47
2018-10-21T00:04:29.461Z,9.46
2018-10-21T00:04:33.768Z,9.46
2018-10-21T00:04:37.978Z,9.46
2018-10-21T00:04:42.292Z,9.46
2018-10-21T00:04:46.498Z,9.45
2018-10-21T00:04:50.485Z,9.45
2018-10-21T00:04:54.685Z,9.46
2018-10-21T00:04:58.668Z,9.45
2018-10-21T00:05:02.600Z,9.44
2018-10-21T00:05:06.589Z,9.44
2018-10-21T00:05:10.793Z,9.44
2018-10-21T00:05:14.889Z,9.44
2018-10-21T00:05:19.096Z,9.44
2018-10-21T00:05:23.415Z,9.44
2018-10-21T00:05:27.532Z,9.43
2018-10-21T00:05:31.854Z,9.43
2018-10-21T00:05:35.946Z,9.43
2018-10-21T00:05:40.051Z,9.43
2018-10-21T00:05:44.249Z,9.43
2018-10-21T00:05:48.351Z,9.42
2018-10-21T00:05:52.556Z,9.43
2018-10-21T00:05:56.549Z,9.42
2018-10-21T00:06:00.751Z,9.43
2018-10-21T00:06:04.947Z,9.42
2018-10-21T00:06:08.936Z,9.42
2018-10-21T00:06:13.041Z,9.41
2018-10-21T00:06:17.147Z,9.41
2018-10-21T00:06:21.455Z,9.41
2018-10-21T00:06:25.660Z,9.41
2018-10-21T00:06:29.756Z,9.42
2018-10-21T00:06:33.965Z,9.41
2018-10-21T00:06:38.168Z,9.41
2018-10-21T00:06:42.262Z,9.4
2018-10-21T00:06:46.470Z,9.41
2018-10-21T00:06:50.676Z,9.4
2018-10-21T00:06:54.773Z,9.4
2018-10-21T00:06:59.086Z,9.4
2018-10-21T00:07:03.189Z,9.4
2018-10-21T00:07:07.406Z,9.4
2018-10-21T00:07:11.393Z,9.39
2018-10-21T00:07:15.380Z,9.4
2018-10-21T00:07:19.590Z,9.39
2018-10-21T00:07:23.693Z,9.39
2018-10-21T00:07:27.903Z,9.39
2018-10-21T00:07:32.104Z,9.39
2018-10-21T00:07:36.202Z,9.39
2018-10-21T00:07:40.404Z,9.39
2018-10-21T00:07:44.606Z,9.39
2018-10-21T00:07:48.832Z,9.39
2018-10-21T00:07:53.041Z,9.39
2018-10-21T00:07:57.242Z,9.39
2018-10-21T00:08:01.441Z,9.39
2018-10-21T00:08:05.538Z,9.39
2018-10-21T00:08:09.747Z,9.39
2018-10-21T00:08:13.845Z,9.38
2018-10-21T00:08:17.732Z,9.39
2018-10-21T00:08:22.042Z,9.38
2018-10-21T00:08:26.027Z,9.38
2018-10-21T00:08:30.239Z,9.39
2018-10-21T00:08:34.443Z,9.38
2018-10-21T00:08:38.539Z,9.38
2018-10-21T00:08:42.631Z,9.39
2018-10-21T00:08:46.991Z,9.39
2018-10-21T00:08:51.195Z,9.38
2018-10-21T00:08:55.335Z,9.39
2018-10-21T00:08:59.982Z,9.39
2018-10-21T00:09:04.481Z,9.39
2018-10-21T00:09:09.301Z,9.39
2018-10-21T00:09:14.520Z,9.39
2018-10-21T00:09:19.323Z,9.38
2018-10-21T00:09:23.533Z,9.38
2018-10-21T00:09:27.745Z,9.39
2018-10-21T00:09:32.053Z,9.38
2018-10-21T00:09:36.263Z,9.39
2018-10-21T00:09:40.458Z,9.39
2018-10-21T00:09:44.559Z,9.39
2018-10-21T00:09:48.653Z,9.39
2018-10-21T00:09:52.897Z,9.39
2018-10-21T00:09:57.006Z,9.39
2018-10-21T00:10:01.202Z,9.4
2018-10-21T00:10:05.199Z,9.4
2018-10-21T00:10:09.408Z,9.39
2018-10-21T00:10:13.632Z,9.39
2018-10-21T00:10:17.737Z,9.39
2018-10-21T00:10:21.724Z,9.4
2018-10-21T00:10:26.047Z,9.39
2018-10-21T00:10:30.254Z,9.39
2018-10-21T00:10:34.568Z,9.39
2018-10-21T00:10:38.766Z,9.38
2018-10-21T00:10:42.856Z,9.39
2018-10-21T00:10:46.950Z,9.39
2018-10-21T00:10:51.152Z,9.4
2018-10-21T00:10:55.357Z,9.4
2018-10-21T00:10:59.454Z,9.39
2018-10-21T00:11:03.557Z,9.39
2018-10-21T00:11:07.651Z,9.4
2018-10-21T00:11:11.853Z,9.4
2018-10-21T00:11:16.051Z,9.4
2018-10-21T00:11:20.256Z,9.4
2018-10-21T00:11:24.457Z,9.4
2018-10-21T00:11:28.770Z,9.39
2018-10-21T00:11:33.081Z,9.39
2018-10-21T00:11:37.287Z,9.4
2018-10-21T00:11:41.381Z,9.4
2018-10-21T00:11:45.587Z,9.4
2018-10-21T00:11:49.796Z,9.4
2018-10-21T00:11:53.996Z,9.4
2018-10-21T00:11:58.096Z,9.4
2018-10-21T00:12:02.091Z,9.4
2018-10-21T00:12:06.076Z,9.4
2018-10-21T00:12:10.170Z,9.4
2018-10-21T00:12:14.281Z,9.4
2018-10-21T00:12:18.606Z,9.4
2018-10-21T00:12:22.705Z,9.4
2018-10-21T00:12:26.917Z,9.4
2018-10-21T00:12:31.012Z,9.4
2018-10-21T00:12:35.002Z,9.41
2018-10-21T00:12:39.308Z,9.41
2018-10-21T00:12:43.403Z,9.41
2018-10-21T00:12:47.611Z,9.41
2018-10-21T00:12:51.925Z,9.41
2018-10-21T00:12:55.914Z,9.4
2018-10-21T00:13:00.115Z,9.41
2018-10-21T00:13:03.997Z,9.42
2018-10-21T00:13:08.201Z,9.41
2018-10-21T00:13:12.410Z,9.41
2018-10-21T00:13:16.505Z,9.42
2018-10-21T00:13:20.611Z,9.41
2018-10-21T00:13:24.914Z,9.42
2018-10-21T00:13:29.112Z,9.42
2018-10-21T00:13:33.323Z,9.42
2018-10-21T00:13:37.629Z,9.43
2018-10-21T00:13:41.829Z,9.42
2018-10-21T00:13:46.030Z,9.43
2018-10-21T00:13:49.913Z,9.43
2018-10-21T00:13:54.120Z,9.42
2018-10-21T00:13:58.219Z,9.42
2018-10-21T00:14:02.429Z,9.43
2018-10-21T00:14:06.539Z,9.43
2018-10-21T00:14:10.851Z,9.42
2018-10-21T00:14:15.104Z,9.43
2018-10-21T00:14:19.302Z,9.43
2018-10-21T00:14:23.393Z,9.43
2018-10-21T00:14:27.487Z,9.43
2018-10-21T00:14:31.810Z,9.43
2018-10-21T00:14:35.697Z,9.43
2018-10-21T00:14:39.896Z,9.42
2018-10-21T00:14:43.995Z,9.43
2018-10-21T00:14:48.304Z,9.43
2018-10-21T00:14:52.627Z,9.43
2018-10-21T00:14:57.077Z,9.43
2018-10-21T00:15:01.911Z,9.43
2018-10-21T00:15:06.684Z,9.43
2018-10-21T00:15:11.079Z,9.44
2018-10-21T00:15:15.562Z,9.43
2018-10-21T00:15:20.132Z,9.43
2018-10-21T00:15:25.159Z,9.44
2018-10-21T00:15:30.769Z,9.44
2018-10-21T00:15:37.075Z,9.44
2018-10-21T00:15:42.580Z,9.44
2018-10-21T00:15:47.093Z,9.44
2018-10-21T00:15:51.186Z,9.44
2018-10-21T00:15:55.293Z,9.44
2018-10-21T00:15:59.643Z,9.44
2018-10-21T00:16:03.902Z,9.44
2018-10-21T00:16:07.898Z,9.44
2018-10-21T00:16:12.103Z,9.44
2018-10-21T00:16:16.094Z,9.43
2018-10-21T00:16:20.187Z,9.43
2018-10-21T00:16:24.503Z,9.44
2018-10-21T00:16:28.711Z,9.44
2018-10-21T00:16:32.917Z,9.44
2018-10-21T00:16:37.122Z,9.44
2018-10-21T00:16:41.435Z,9.43
2018-10-21T00:16:45.532Z,9.44
2018-10-21T00:16:49.736Z,9.44
2018-10-21T00:16:53.833Z,9.45
2018-10-21T00:16:58.043Z,9.44
2018-10-21T00:17:02.246Z,9.44
2018-10-21T00:17:06.445Z,9.44
2018-10-21T00:17:10.762Z,9.43
2018-10-21T00:17:14.982Z,9.44
2018-10-21T00:17:19.185Z,9.44
2018-10-21T00:17:23.177Z,9.43
2018-10-21T00:17:27.384Z,9.43
2018-10-21T00:17:31.594Z,9.43
2018-10-21T00:17:35.799Z,9.44
2018-10-21T00:17:40.005Z,9.44
2018-10-21T00:17:44.319Z,9.44
2018-10-21T00:17:48.622Z,9.43
2018-10-21T00:17:52.929Z,9.43
2018-10-21T00:17:57.175Z,9.43
2018-10-21T00:18:01.272Z,9.42
2018-10-21T00:18:05.519Z,9.42
2018-10-21T00:18:09.620Z,9.43
2018-10-21T00:18:13.715Z,9.43
2018-10-21T00:18:17.810Z,9.43
2018-10-21T00:18:21.905Z,9.43
2018-10-21T00:18:26.111Z,9.42
2018-10-21T00:18:30.210Z,9.42
2018-10-21T00:18:34.414Z,9.43
2018-10-21T00:18:38.628Z,9.42
2018-10-21T00:18:42.722Z,9.42
2018-10-21T00:18:47.031Z,9.42
2018-10-21T00:18:51.236Z,9.42
2018-10-21T00:18:55.543Z,9.42
2018-10-21T00:18:59.640Z,9.4
2018-10-21T00:19:03.859Z,9.41
2018-10-21T00:19:08.076Z,9.41
2018-10-21T00:19:12.389Z,9.41
2018-10-21T00:19:16.600Z,9.41
2018-10-21T00:19:20.802Z,9.41
2018-10-21T00:19:24.904Z,9.41
2018-10-21T00:19:28.788Z,9.41
2018-10-21T00:19:32.988Z,9.41
2018-10-21T00:19:37.081Z,9.4
2018-10-21T00:19:41.287Z,9.4
2018-10-21T00:19:45.593Z,9.41
2018-10-21T00:19:49.686Z,9.4
2018-10-21T00:19:53.789Z,9.41
2018-10-21T00:19:57.780Z,9.4
2018-10-21T00:20:01.669Z,9.4
2018-10-21T00:20:05.772Z,9.4
2018-10-21T00:20:09.874Z,9.39
2018-10-21T00:20:13.980Z,9.39
2018-10-21T00:20:18.300Z,9.39
2018-10-21T00:20:22.612Z,9.39
2018-10-21T00:20:26.817Z,9.38
2018-10-21T00:20:31.128Z,9.39
2018-10-21T00:20:35.232Z,9.38
2018-10-21T00:20:39.436Z,9.38
2018-10-21T00:20:43.754Z,9.38
2018-10-21T00:20:48.064Z,9.38
2018-10-21T00:20:52.389Z,9.37
2018-10-21T00:20:56.628Z,9.38
2018-10-21T00:21:01.257Z,9.38
2018-10-21T00:21:05.627Z,9.37
2018-10-21T00:21:10.458Z,9.37
2018-10-21T00:21:15.608Z,9.37
2018-10-21T00:21:20.276Z,9.36
2018-10-21T00:21:24.485Z,9.36
2018-10-21T00:21:28.693Z,9.36
2018-10-21T00:21:32.806Z,9.36
2018-10-21T00:21:37.009Z,9.36
2018-10-21T00:21:41.223Z,9.36
2018-10-21T00:21:45.318Z,9.35
2018-10-21T00:21:49.522Z,9.34
2018-10-21T00:21:53.730Z,9.35
2018-10-21T00:21:57.989Z,9.35
2018-10-21T00:22:02.199Z,9.34
2018-10-21T00:22:06.297Z,9.35
2018-10-21T00:22:10.412Z,9.34
2018-10-21T00:22:14.723Z,9.34
2018-10-21T00:22:19.036Z,9.34
2018-10-21T00:22:23.236Z,9.34
2018-10-21T00:22:27.564Z,9.34
2018-10-21T00:22:31.669Z,9.34
2018-10-21T00:22:35.878Z,9.33
2018-10-21T00:22:40.187Z,9.33
2018-10-21T00:22:44.499Z,9.33
2018-10-21T00:22:48.702Z,9.33
2018-10-21T00:22:52.900Z,9.33
2018-10-21T00:22:57.219Z,9.34
2018-10-21T00:23:01.533Z,9.32
2018-10-21T00:23:05.736Z,9.32
2018-10-21T00:23:09.952Z,9.33
2018-10-21T00:23:14.153Z,9.32
2018-10-21T00:23:18.355Z,9.32
2018-10-21T00:23:22.559Z,9.32
2018-10-21T00:23:26.875Z,9.31
2018-10-21T00:23:31.185Z,9.31
2018-10-21T00:23:35.505Z,9.32
2018-10-21T00:23:39.704Z,9.3
2018-10-21T00:23:43.905Z,9.31
2018-10-21T00:23:48.106Z,9.31
2018-10-21T00:23:52.312Z,9.31
2018-10-21T00:23:56.533Z,9.31
2018-10-21T00:24:00.840Z,9.3
2018-10-21T00:24:04.950Z,9.3
2018-10-21T00:24:09.156Z,9.3
2018-10-21T00:24:13.359Z,9.3
2018-10-21T00:24:17.465Z,9.29
2018-10-21T00:24:21.448Z,9.3
2018-10-21T00:24:25.545Z,9.3
2018-10-21T00:24:29.744Z,9.29
2018-10-21T00:24:33.950Z,9.29
2018-10-21T00:24:38.260Z,9.29
2018-10-21T00:24:42.463Z,9.28
2018-10-21T00:24:46.672Z,9.29
2018-10-21T00:24:50.763Z,9.3
2018-10-21T00:24:55.090Z,9.29
2018-10-21T00:24:59.287Z,9.29
2018-10-21T00:25:03.395Z,9.29
2018-10-21T00:25:07.278Z,9.28
2018-10-21T00:25:11.585Z,9.28
2018-10-21T00:25:15.893Z,9.28
2018-10-21T00:25:20.208Z,9.28
2018-10-21T00:25:24.305Z,9.28
2018-10-21T00:25:28.621Z,9.28
2018-10-21T00:25:32.928Z,9.28
2018-10-21T00:25:36.921Z,9.27
2018-10-21T00:25:41.232Z,9.28
2018-10-21T00:25:45.439Z,9.27
2018-10-21T00:25:49.690Z,9.27
2018-10-21T00:25:53.901Z,9.28
2018-10-21T00:25:58.132Z,9.27
2018-10-21T00:26:02.331Z,9.26
2018-10-21T00:26:06.424Z,9.26
2018-10-21T00:26:10.667Z,9.27
2018-10-21T00:26:14.771Z,9.27
2018-10-21T00:26:18.969Z,9.26
2018-10-21T00:26:23.171Z,9.26
2018-10-21T00:26:27.373Z,9.27
2018-10-21T00:26:31.371Z,9.26
2018-10-21T00:26:35.475Z,9.27
2018-10-21T00:26:39.671Z,9.26
2018-10-21T00:26:43.980Z,9.26
2018-10-21T00:26:48.184Z,9.26
2018-10-21T00:26:52.278Z,9.26
2018-10-21T00:26:56.778Z,9.27
2018-10-21T00:27:01.472Z,9.25
2018-10-21T00:27:05.815Z,9.24
2018-10-21T00:27:10.654Z,9.26
2018-10-21T00:27:15.946Z,9.26
2018-10-21T00:27:20.745Z,9.26
2018-10-21T00:27:24.862Z,9.25
2018-10-21T00:27:29.072Z,9.24
2018-10-21T00:27:33.446Z,9.25
2018-10-21T00:27:37.649Z,9.24
2018-10-21T00:27:41.956Z,9.25
2018-10-21T00:27:46.159Z,9.24
2018-10-21T00:27:50.475Z,9.23
2018-10-21T00:27:54.785Z,9.24
2018-10-21T00:27:58.988Z,9.24
2018-10-21T00:28:03.087Z,9.23
2018-10-21T00:28:07.296Z,9.23
2018-10-21T00:28:11.503Z,9.23
2018-10-21T00:28:15.604Z,9.23
2018-10-21T00:28:19.585Z,9.22
2018-10-21T00:28:23.824Z,9.24
2018-10-21T00:28:28.138Z,9.23
2018-10-21T00:28:32.244Z,9.24
2018-10-21T00:28:36.348Z,9.23
2018-10-21T00:28:40.446Z,9.23
2018-10-21T00:28:44.650Z,9.22
2018-10-21T00:28:48.873Z,9.23
2018-10-21T00:28:52.969Z,9.22
2018-10-21T00:28:57.280Z,9.22
2018-10-21T00:29:01.385Z,9.22
2018-10-21T00:29:05.593Z,9.22
2018-10-21T00:29:09.698Z,9.22
2018-10-21T00:29:14.001Z,9.22
2018-10-21T00:29:18.211Z,9.22
2018-10-21T00:29:22.305Z,9.22
2018-10-21T00:29:26.399Z,9.22
2018-10-21T00:29:30.286Z,9.23
2018-10-21T00:29:34.492Z,9.22
2018-10-21T00:29:38.723Z,9.21
2018-10-21T00:29:42.971Z,9.22
2018-10-21T00:29:47.175Z,9.22
2018-10-21T00:29:51.482Z,9.22
2018-10-21T00:29:55.684Z,9.22
2018-10-21T00:29:59.896Z,9.21
2018-10-21T00:30:04.209Z,9.21
2018-10-21T00:30:08.314Z,9.21
2018-10-21T00:30:12.520Z,9.21
2018-10-21T00:30:16.509Z,9.21
2018-10-21T00:30:20.721Z,9.21
2018-10-21T00:30:24.922Z,9.21
2018-10-21T00:30:29.129Z,9.21
2018-10-21T00:30:33.229Z,9.21
2018-10-21T00:30:37.538Z,9.2
2018-10-21T00:30:41.743Z,9.21
2018-10-21T00:30:45.951Z,9.22
2018-10-21T00:30:50.049Z,9.21
2018-10-21T00:30:54.368Z,9.21
2018-10-21T00:30:58.584Z,9.21
2018-10-21T00:31:02.677Z,9.21
2018-10-21T00:31:06.983Z,9.21
2018-10-21T00:31:11.197Z,9.2
2018-10-21T00:31:15.404Z,9.2
2018-10-21T00:31:19.543Z,9.21
2018-10-21T00:31:23.758Z,9.21
2018-10-21T00:31:27.976Z,9.21
2018-10-21T00:31:32.283Z,9.21
2018-10-21T00:31:36.488Z,9.2
2018-10-21T00:31:40.806Z,9.2
2018-10-21T00:31:45.114Z,9.2
2018-10-21T00:31:49.207Z,9.2
2018-10-21T00:31:53.307Z,9.2
2018-10-21T00:31:57.633Z,9.2
2018-10-21T00:32:01.844Z,9.2
2018-10-21T00:32:05.951Z,9.19
2018-10-21T00:32:10.166Z,9.19
2018-10-21T00:32:14.476Z,9.2
2018-10-21T00:32:18.572Z,9.19
2018-10-21T00:32:22.889Z,9.19
2018-10-21T00:32:27.201Z,9.2
2018-10-21T00:32:31.514Z,9.19
2018-10-21T00:32:35.718Z,9.19
2018-10-21T00:32:39.920Z,9.19
2018-10-21T00:32:44.124Z,9.19
2018-10-21T00:32:48.443Z,9.19
2018-10-21T00:32:52.655Z,9.18
2018-10-21T00:32:57.170Z,9.19
2018-10-21T00:33:01.632Z,9.19
2018-10-21T00:33:05.710Z,9.19
2018-10-21T00:33:10.636Z,9.18
2018-10-21T00:33:15.410Z,9.19
2018-10-21T00:33:19.878Z,9.18
2018-10-21T00:33:24.200Z,9.19
2018-10-21T00:33:28.515Z,9.19
2018-10-21T00:33:32.826Z,9.18
2018-10-21T00:33:37.146Z,9.18
2018-10-21T00:33:41.136Z,9.18
2018-10-21T00:33:45.465Z,9.18
2018-10-21T00:33:49.681Z,9.17
2018-10-21T00:33:53.887Z,9.17
2018-10-21T00:33:58.095Z,9.18
2018-10-21T00:34:02.449Z,9.17
2018-10-21T00:34:06.766Z,9.17
2018-10-21T00:34:10.865Z,9.17
2018-10-21T00:34:14.961Z,9.16
2018-10-21T00:34:19.271Z,9.16
2018-10-21T00:34:23.582Z,9.17
2018-10-21T00:34:27.676Z,9.16
2018-10-21T00:34:31.986Z,9.17
2018-10-21T00:34:36.182Z,9.17
2018-10-21T00:34:40.499Z,9.17
2018-10-21T00:34:44.808Z,9.16
2018-10-21T00:34:49.013Z,9.15
2018-10-21T00:34:53.324Z,9.16
2018-10-21T00:34:57.207Z,9.16
2018-10-21T00:35:01.300Z,9.16
2018-10-21T00:35:05.298Z,9.15
2018-10-21T00:35:09.609Z,9.15
2018-10-21T00:35:13.706Z,9.15
2018-10-21T00:35:17.796Z,9.16
2018-10-21T00:35:22.117Z,9.15
2018-10-21T00:35:26.321Z,9.16
2018-10-21T00:35:30.636Z,9.15
2018-10-21T00:35:34.840Z,9.15
2018-10-21T00:35:39.151Z,9.15
2018-10-21T00:35:43.464Z,9.15
2018-10-21T00:35:47.450Z,9.15
2018-10-21T00:35:51.439Z,9.15
2018-10-21T00:35:55.639Z,9.15
2018-10-21T00:35:59.845Z,9.15
2018-10-21T00:36:03.720Z,9.14
2018-10-21T00:36:07.920Z,9.14
2018-10-21T00:36:12.014Z,9.15
2018-10-21T00:36:16.330Z,9.14
2018-10-21T00:36:20.537Z,9.14
2018-10-21T00:36:24.525Z,9.14
2018-10-21T00:36:28.621Z,9.13
2018-10-21T00:36:32.827Z,9.14
2018-10-21T00:36:37.030Z,9.14
2018-10-21T00:36:41.334Z,9.14
2018-10-21T00:36:45.542Z,9.14
2018-10-21T00:36:49.745Z,9.13
2018-10-21T00:36:53.956Z,9.14
2018-10-21T00:36:58.161Z,9.13
2018-10-21T00:37:02.468Z,9.13
2018-10-21T00:37:06.240Z,9.12
2018-10-21T00:37:10.445Z,9.13
2018-10-21T00:37:14.538Z,9.13
2018-10-21T00:37:18.632Z,9.12
2018-10-21T00:37:22.726Z,9.12
2018-10-21T00:37:27.038Z,9.12
2018-10-21T00:37:31.245Z,9.12
2018-10-21T00:37:35.564Z,9.12
2018-10-21T00:37:39.871Z,9.12
2018-10-21T00:37:44.106Z,9.12
2018-10-21T00:37:48.314Z,9.11
2018-10-21T00:37:52.626Z,9.12
2018-10-21T00:37:56.834Z,9.12
2018-10-21T00:38:00.923Z,9.11
2018-10-21T00:38:05.241Z,9.12
2018-10-21T00:38:09.553Z,9.12
2018-10-21T00:38:13.872Z,9.11
2018-10-21T00:38:18.071Z,9.11
2018-10-21T00:38:22.388Z,9.12
2018-10-21T00:38:26.696Z,9.12
2018-10-21T00:38:30.890Z,9.12
2018-10-21T00:38:34.983Z,9.11
2018-10-21T00:38:39.300Z,9.11
2018-10-21T00:38:43.291Z,9.11
2018-10-21T00:38:47.492Z,9.11
2018-10-21T00:38:51.870Z,9.1
2018-10-21T00:38:56.077Z,9.11
2018-10-21T00:39:00.555Z,9.11
2018-10-21T00:39:04.930Z,9.11
2018-10-21T00:39:09.923Z,9.1
2018-10-21T00:39:14.765Z,9.1
2018-10-21T00:39:19.462Z,9.1
2018-10-21T00:39:23.667Z,9.1
2018-10-21T00:39:27.768Z,9.1
2018-10-21T00:39:31.865Z,9.1
2018-10-21T00:39:35.957Z,9.1
2018-10-21T00:39:40.263Z,9.1
2018-10-21T00:39:44.264Z,9.1
2018-10-21T00:39:48.471Z,9.1
2018-10-21T00:39:52.673Z,9.09
2018-10-21T00:39:56.981Z,9.1
2018-10-21T00:40:01.078Z,9.09
2018-10-21T00:40:05.277Z,9.1
2018-10-21T00:40:09.482Z,9.1
2018-10-21T00:40:13.684Z,9.09
2018-10-21T00:40:17.893Z,9.09
2018-10-21T00:40:22.211Z,9.09
2018-10-21T00:40:26.361Z,9.1
2018-10-21T00:40:30.577Z,9.09
2018-10-21T00:40:34.888Z,9.09
2018-10-21T00:40:39.094Z,9.09
2018-10-21T00:40:43.304Z,9.1
2018-10-21T00:40:47.403Z,9.09
2018-10-21T00:40:51.712Z,9.09
2018-10-21T00:40:55.813Z,9.09
2018-10-21T00:41:00.016Z,9.09
2018-10-21T00:41:04.116Z,9.09
2018-10-21T00:41:08.441Z,9.07
2018-10-21T00:41:12.535Z,9.08
2018-10-21T00:41:16.735Z,9.09
2018-10-21T00:41:21.040Z,9.08
2018-10-21T00:41:25.135Z,9.08
2018-10-21T00:41:29.449Z,9.07
2018-10-21T00:41:33.449Z,9.07
2018-10-21T00:41:37.545Z,9.07
2018-10-21T00:41:41.859Z,9.07
2018-10-21T00:41:46.059Z,9.08
2018-10-21T00:41:50.261Z,9.07
2018-10-21T00:41:54.362Z,9.07
2018-10-21T00:41:58.566Z,9.07
2018-10-21T00:42:02.762Z,9.07
2018-10-21T00:42:06.757Z,9.07
2018-10-21T00:42:10.961Z,9.07
2018-10-21T00:42:15.268Z,9.07
2018-10-21T00:42:19.578Z,9.06
2018-10-21T00:42:23.670Z,9.07
2018-10-21T00:42:27.561Z,9.06
2018-10-21T00:42:31.757Z,9.06
2018-10-21T00:42:36.080Z,9.06
2018-10-21T00:42:40.187Z,9.06
2018-10-21T00:42:44.491Z,9.06
2018-10-21T00:42:48.796Z,9.06
2018-10-21T00:42:52.998Z,9.07
2018-10-21T00:42:57.211Z,9.06
2018-10-21T00:43:01.406Z,9.05
2018-10-21T00:43:05.722Z,9.05
2018-10-21T00:43:09.712Z,9.05
2018-10-21T00:43:13.807Z,9.05
2018-10-21T00:43:17.899Z,9.04
2018-10-21T00:43:22.207Z,9.06
2018-10-21T00:43:26.514Z,9.06
2018-10-21T00:43:30.713Z,9.06
2018-10-21T00:43:35.022Z,9.05
2018-10-21T00:43:39.122Z,9.04
2018-10-21T00:43:43.325Z,9.03
2018-10-21T00:43:47.553Z,9.04
2018-10-21T00:43:51.870Z,9.04
2018-10-21T00:43:55.959Z,9.03
2018-10-21T00:44:00.061Z,9.04
2018-10-21T00:44:04.424Z,9.04
2018-10-21T00:44:08.407Z,9.04
2018-10-21T00:44:12.565Z,9.04
2018-10-21T00:44:16.767Z,9.04
2018-10-21T00:44:20.974Z,9.04
2018-10-21T00:44:25.066Z,9.04
2018-10-21T00:44:29.272Z,9.04
2018-10-21T00:44:33.364Z,9.04
2018-10-21T00:44:37.569Z,9.03
2018-10-21T00:44:41.765Z,9.04
2018-10-21T00:44:45.859Z,9.03
2018-10-21T00:44:49.951Z,9.02
2018-10-21T00:44:54.239Z,9.02
2018-10-21T00:44:58.633Z,9.02
2018-10-21T00:45:02.967Z,9.02
2018-10-21T00:45:07.011Z,9.02
2018-10-21T00:45:11.492Z,9.02
2018-10-21T00:45:16.665Z,9.02
2018-10-21T00:45:20.773Z,9.02
2018-10-21T00:45:24.980Z,9.02
2018-10-21T00:45:29.284Z,9.02
2018-10-21T00:45:33.597Z,9.01
2018-10-21T00:45:37.799Z,9.02
2018-10-21T00:45:42.008Z,9.02
2018-10-21T00:45:46.101Z,9.01
2018-10-21T00:45:50.403Z,9.01
2018-10-21T00:45:54.597Z,9.01
2018-10-21T00:45:58.593Z,9
2018-10-21T00:46:02.686Z,9.01
2018-10-21T00:46:06.890Z,9.01
2018-10-21T00:46:11.110Z,9
2018-10-21T00:46:15.423Z,9
2018-10-21T00:46:19.745Z,9
2018-10-21T00:46:24.049Z,9
2018-10-21T00:46:28.136Z,9
2018-10-21T00:46:32.140Z,8.99
2018-10-21T00:46:36.345Z,8.99
2018-10-21T00:46:40.469Z,8.98
2018-10-21T00:46:44.781Z,8.99
2018-10-21T00:46:48.981Z,8.99
2018-10-21T00:46:53.197Z,8.98
2018-10-21T00:46:57.400Z,8.98
2018-10-21T00:47:01.492Z,8.99
2018-10-21T00:47:05.695Z,8.98
2018-10-21T00:47:09.789Z,8.98
2018-10-21T00:47:13.890Z,8.98
2018-10-21T00:47:18.203Z,8.97
2018-10-21T00:47:22.518Z,8.97
2018-10-21T00:47:26.722Z,8.97
2018-10-21T00:47:30.712Z,8.97
2018-10-21T00:47:35.019Z,8.96
2018-10-21T00:47:39.211Z,8.96
2018-10-21T00:47:43.519Z,8.97
2018-10-21T00:47:47.509Z,8.96
2018-10-21T00:47:51.867Z,8.95
2018-10-21T00:47:55.964Z,8.95
2018-10-21T00:48:00.283Z,8.95
2018-10-21T00:48:04.526Z,8.95
2018-10-21T00:48:08.626Z,8.95
2018-10-21T00:48:12.612Z,8.94
2018-10-21T00:48:16.930Z,8.95
2018-10-21T00:48:21.242Z,8.95
2018-10-21T00:48:25.524Z,8.95
2018-10-21T00:48:29.672Z,8.94
2018-10-21T00:48:33.766Z,8.94
2018-10-21T00:48:37.757Z,8.94
2018-10-21T00:48:41.958Z,8.94
2018-10-21T00:48:46.270Z,8.93
2018-10-21T00:48:50.482Z,8.93
2018-10-21T00:48:54.468Z,8.93
2018-10-21T00:48:58.674Z,8.92
2018-10-21T00:49:02.932Z,8.93
2018-10-21T00:49:07.140Z,8.92
2018-10-21T00:49:11.468Z,8.92
2018-10-21T00:49:15.568Z,8.92
2018-10-21T00:49:19.770Z,8.92
2018-10-21T00:49:24.075Z,8.91
2018-10-21T00:49:28.382Z,8.91
2018-10-21T00:49:32.585Z,8.91
2018-10-21T00:49:36.785Z,8.92
2018-10-21T00:49:40.993Z,8.91
2018-10-21T00:49:45.195Z,8.91
2018-10-21T00:49:49.397Z,8.91
2018-10-21T00:49:53.712Z,8.9
2018-10-21T00:49:57.695Z,8.9
2018-10-21T00:50:01.908Z,8.9
2018-10-21T00:50:06.123Z,8.89
2018-10-21T00:50:10.429Z,8.9
2018-10-21T00:50:14.730Z,8.9
2018-10-21T00:50:18.946Z,8.89
2018-10-21T00:50:23.247Z,8.88
2018-10-21T00:50:27.547Z,8.88
2018-10-21T00:50:31.857Z,8.87
2018-10-21T00:50:36.060Z,8.88
2018-10-21T00:50:40.408Z,8.87
2018-10-21T00:50:44.607Z,8.86
2018-10-21T00:50:48.808Z,8.87
2018-10-21T00:50:53.118Z,8.86
2018-10-21T00:50:57.637Z,8.86
2018-10-21T00:51:02.161Z,8.86
2018-10-21T00:51:06.406Z,8.86
2018-10-21T00:51:11.376Z,8.84
2018-10-21T00:51:15.910Z,8.85
2018-10-21T00:51:20.329Z,8.85
2018-10-21T00:51:24.427Z,8.85
2018-10-21T00:51:28.752Z,8.84
2018-10-21T00:51:32.850Z,8.85
2018-10-21T00:51:36.837Z,8.84
2018-10-21T00:51:41.039Z,8.84
2018-10-21T00:51:45.352Z,8.84
2018-10-21T00:51:49.553Z,8.84
2018-10-21T00:51:53.659Z,8.83
2018-10-21T00:51:57.864Z,8.83
2018-10-21T00:52:01.962Z,8.83
2018-10-21T00:52:06.205Z,8.82
2018-10-21T00:52:10.404Z,8.83
2018-10-21T00:52:14.493Z,8.82
2018-10-21T00:52:18.585Z,8.82
2018-10-21T00:52:22.797Z,8.82
2018-10-21T00:52:26.997Z,8.82
2018-10-21T00:52:31.094Z,8.82
2018-10-21T00:52:35.411Z,8.81
2018-10-21T00:52:39.633Z,8.8
2018-10-21T00:52:43.836Z,8.81
2018-10-21T00:52:47.827Z,8.81
2018-10-21T00:52:51.927Z,8.8
2018-10-21T00:52:56.142Z,8.8
2018-10-21T00:53:00.234Z,8.8
2018-10-21T00:53:04.547Z,8.8
2018-10-21T00:53:08.532Z,8.79
2018-10-21T00:53:12.847Z,8.79
2018-10-21T00:53:17.099Z,8.79
2018-10-21T00:53:21.303Z,8.78
2018-10-21T00:53:25.624Z,8.78
2018-10-21T00:53:29.824Z,8.77
2018-10-21T00:53:34.028Z,8.77
2018-10-21T00:53:38.328Z,8.76
2018-10-21T00:53:42.526Z,8.77
2018-10-21T00:53:46.724Z,8.77
2018-10-21T00:53:50.921Z,8.76
2018-10-21T00:53:55.127Z,8.76
2018-10-21T00:53:59.435Z,8.76
2018-10-21T00:54:03.532Z,8.76
2018-10-21T00:54:07.743Z,8.75
2018-10-21T00:54:11.946Z,8.74
2018-10-21T00:54:16.259Z,8.75
2018-10-21T00:54:20.362Z,8.74
2018-10-21T00:54:24.603Z,8.74
2018-10-21T00:54:28.802Z,8.74
2018-10-21T00:54:33.008Z,8.73
2018-10-21T00:54:37.331Z,8.73
2018-10-21T00:54:41.437Z,8.74
2018-10-21T00:54:45.655Z,8.73
2018-10-21T00:54:49.872Z,8.73
2018-10-21T00:54:54.179Z,8.71
2018-10-21T00:54:58.376Z,8.72
2018-10-21T00:55:02.842Z,8.72
2018-10-21T00:55:06.892Z,8.72
2018-10-21T00:55:11.107Z,8.72
2018-10-21T00:55:15.326Z,8.72
2018-10-21T00:55:19.648Z,8.7
2018-10-21T00:55:23.531Z,8.71
2018-10-21T00:55:27.746Z,8.7
2018-10-21T00:55:31.948Z,8.7
2018-10-21T00:55:36.158Z,8.7
2018-10-21T00:55:40.462Z,8.7
2018-10-21T00:55:44.663Z,8.69
2018-10-21T00:55:48.872Z,8.69
2018-10-21T00:55:53.183Z,8.69
2018-10-21T00:55:57.281Z,8.69
2018-10-21T00:56:01.382Z,8.67
2018-10-21T00:56:05.522Z,8.68
2018-10-21T00:56:09.734Z,8.69
2018-10-21T00:56:14.045Z,8.68
2018-10-21T00:56:18.313Z,8.68
2018-10-21T00:56:22.408Z,8.67
2018-10-21T00:56:26.607Z,8.68
2018-10-21T00:56:30.808Z,8.67